Ash Flat, AR

8:11 PM CDT on May 22, 2015 (GMT -0500)
Horseshoe Bend | | Change Station
CLOSE
Current Station
Personal Weather Station
Location: Horseshoe Bend, AR
Elevation: 787 ft
Nearby Weather Stations

Elev 787 ft 36.22 °N, 91.72 °W | Updated 7 seconds ago

Mostly Cloudy
Mostly Cloudy
61.1 °F
Feels Like 61.1 °F
N
0.0
Wind Variable Wind from East
Gusts 0.0 mph

Today
High -- | Low -- °F
--% Chance of Precip.
Yesterday
High -- | Low -- °F
Precip. -- in
5:55 AM 8:11 PM
Waxing Crescent, 25% visible
Pressure 30.24 in
Visibility 10.0 miles
Clouds Scattered Clouds 11000 ft
Dew Point 54 °F
Humidity 79%
Rainfall 0.00 in
Snow Depth Not available.
UV 0 out of 12
Pollen 7.50 out of 12
Air Quality Not available.
Flu Activity No Activity
METAR KBVX 230055Z AUTO 00000KT 10SM SCT110 17/12 A3024 RMK AO1

More Conditions Fewer Conditions

Pressure 30.24 in
Visibility 10.0 miles
Clouds Scattered Clouds 11000 ft
Dew Point 54 °F
Humidity 79%
Rainfall 0.00 in
Snow Depth Not available.
UV 0 out of 12
Pollen 7.50 out of 12
Air Quality Not available.
Flu Activity No Activity
METAR KBVX 230055Z AUTO 00000KT 10SM SCT110 17/12 A3024 RMK AO1

More Conditions Fewer Conditions

10-Day Weather Forecast

Almanac

Astronomy

May. 22, 2015 Rise Set
Actual Time
Civil Twilight
Nautical Twilight
Astronomical Twilight
Moon
Length of Visible Light
Length of Day
Tomorrow will be .
, % of the Moon is Illuminated

Today's Extremes

State Highs State Lows

Community

WunderPhotos

Upload Photos

1,823,355 photos uploaded!

WunderBlogs® & News

Nearby

Air Quality

  Air Quality AQ Index Pollutant
Not available.

Snow Depth

Station Depth Elevation

Earthquake Activity

City Distance Mag. Time & Date
Minimum magnitude displayed is 2.5.

Coastal Water Temperatures

Place Temperature

Stations

Nearby Weather Stations

Station Location Temp. Windchill Dew Point Humidity Wind Precip. Elev Updated Type